Time;durP1;ratioP1;P1;durP2;ratioP2;P2;SDS_P1;SDS_P2;PMS_P1;PMS_P2;Temp;Humidity;BMP_temperature;BMP_pressure;BME280_temperature;BME280_humidity;BME280_pressure;Samples;Min_cycle;Max_cycle;Signal;HPM_P1;HPM_P2
2021/01/28 00:00:16;;;;;;;;;;;29.30;33.40;;;;;;5094902;28;19917;-54
2021/01/28 00:02:42;;;;;;;;;;;29.30;33.30;;;;;;5092756;28;20312;-57
2021/01/28 00:05:07;;;;;;;;;;;29.30;33.30;;;;;;5074255;28;19915;-57
2021/01/28 00:07:33;;;;;;;;;;;29.30;33.20;;;;;;5074643;28;19943;-58
2021/01/28 00:09:58;;;;;;;;;;;29.30;33.20;;;;;;5073561;28;19912;-56
2021/01/28 00:12:24;;;;;;;;;;;29.20;33.10;;;;;;5073984;28;19908;-52
2021/01/28 00:14:49;;;;;;;;;;;29.30;33.00;;;;;;5074477;28;20008;-51
2021/01/28 00:17:15;;;;;;;;;;;29.10;31.20;;;;;;5084824;28;20378;-47
2021/01/28 00:19:40;;;;;;;;;;;29.00;30.80;;;;;;5076890;28;19909;-47
2021/01/28 00:22:06;;;;;;;;;;;29.00;32.50;;;;;;5076552;28;19933;-47
2021/01/28 00:24:31;;;;;;;;;;;29.00;32.50;;;;;;5093774;28;19908;-52
2021/01/28 00:26:57;;;;;;;;;;;29.10;32.30;;;;;;5093516;28;19908;-48
2021/01/28 00:29:22;;;;;;;;;;;29.10;32.10;;;;;;5093231;28;19930;-47
2021/01/28 00:31:47;;;;;;;;;;;29.10;32.00;;;;;;5094365;28;20009;-47
2021/01/28 00:34:13;;;;;;;;;;;29.20;31.90;;;;;;5091044;28;19917;-53
2021/01/28 00:36:38;;;;;;;;;;;29.20;32.00;;;;;;5073597;28;19921;-48
2021/01/28 00:39:04;;;;;;;;;;;29.10;31.80;;;;;;5073873;28;19916;-48
2021/01/28 00:41:29;;;;;;;;;;;29.20;32.00;;;;;;5073464;28;19994;-51
2021/01/28 00:43:55;;;;;;;;;;;29.10;31.80;;;;;;5073255;28;19927;-47
2021/01/28 00:46:20;;;;;;;;;;;29.20;31.80;;;;;;5073647;28;19931;-47
2021/01/28 00:48:47;;;;;;;;;;;29.20;31.90;;;;;;5073756;28;19915;-50
2021/01/28 00:51:12;;;;;;;;;;;29.10;31.70;;;;;;5055386;28;20377;-47
2021/01/28 00:53:38;;;;;;;;;;;29.10;31.90;;;;;;5080124;28;19912;-47
2021/01/28 00:56:03;;;;;;;;;;;29.20;32.20;;;;;;5093853;28;19916;-48
2021/01/28 00:58:29;;;;;;;;;;;29.20;32.00;;;;;;5093701;28;20390;-52
2021/01/28 01:00:54;;;;;;;;;;;29.20;32.00;;;;;;5092992;28;19935;-47
2021/01/28 01:03:21;;;;;;;;;;;29.20;31.80;;;;;;5081012;28;20263;-47
2021/01/28 01:05:46;;;;;;;;;;;29.20;31.80;;;;;;5093623;28;20030;-49
2021/01/28 01:08:17;;;;;;;;;;;29.20;31.90;;;;;;5082440;28;19978;-48
2021/01/28 01:10:43;;;;;;;;;;;29.10;31.60;;;;;;5073125;28;19908;-47
2021/01/28 01:13:10;;;;;;;;;;;29.10;31.60;;;;;;5072809;28;20045;-48
2021/01/28 01:15:35;;;;;;;;;;;29.20;31.60;;;;;;5076639;28;20366;-47
2021/01/28 01:18:01;;;;;;;;;;;29.10;31.50;;;;;;5084443;28;19916;-50
2021/01/28 01:20:26;;;;;;;;;;;29.20;31.50;;;;;;5090816;28;19966;-48
2021/01/28 01:22:52;;;;;;;;;;;29.10;31.60;;;;;;5093396;28;20336;-49
2021/01/28 01:25:17;;;;;;;;;;;29.10;31.50;;;;;;5091561;28;20254;-47
2021/01/28 01:27:43;;;;;;;;;;;29.10;31.70;;;;;;5093263;28;19919;-50
2021/01/28 01:30:09;;;;;;;;;;;29.20;31.60;;;;;;5092761;28;19926;-48
2021/01/28 01:32:34;;;;;;;;;;;29.10;31.40;;;;;;5093146;28;19934;-49
2021/01/28 01:34:59;;;;;;;;;;;29.20;31.40;;;;;;5092890;28;19934;-49
2021/01/28 01:37:25;;;;;;;;;;;29.20;31.40;;;;;;5092783;28;19927;-49
2021/01/28 01:39:50;;;;;;;;;;;29.20;31.40;;;;;;5092466;28;20290;-47
2021/01/28 01:42:16;;;;;;;;;;;29.20;31.30;;;;;;5075457;28;19999;-50
2021/01/28 01:44:41;;;;;;;;;;;29.10;31.30;;;;;;5072835;28;19915;-52
2021/01/28 01:47:27;;;;;;;;;;;29.10;31.20;;;;;;5072551;28;19947;-47
2021/01/28 01:49:53;;;;;;;;;;;29.20;31.80;;;;;;5071839;28;20390;-51
2021/01/28 01:52:18;;;;;;;;;;;29.10;31.20;;;;;;5073842;28;19912;-51
2021/01/28 01:54:44;;;;;;;;;;;29.20;31.30;;;;;;5054895;28;19991;-48
2021/01/28 01:57:13;;;;;;;;;;;29.10;31.30;;;;;;5054658;28;19916;-48
2021/01/28 01:59:40;;;;;;;;;;;29.10;31.20;;;;;;5054582;28;19978;-52
2021/01/28 02:02:09;;;;;;;;;;;29.20;31.20;;;;;;5054721;28;19912;-48
2021/01/28 02:04:35;;;;;;;;;;;29.20;31.20;;;;;;5072312;28;19909;-48
2021/01/28 02:07:08;;;;;;;;;;;29.20;31.10;;;;;;5075833;28;19923;-50
2021/01/28 02:09:34;;;;;;;;;;;29.10;31.10;;;;;;5072465;28;19919;-48
2021/01/28 02:11:59;;;;;;;;;;;29.10;31.10;;;;;;5072678;28;20274;-48
2021/01/28 02:14:25;;;;;;;;;;;29.20;31.10;;;;;;5074682;28;19958;-47
2021/01/28 02:16:51;;;;;;;;;;;29.10;31.00;;;;;;5054400;28;19926;-47
2021/01/28 02:19:36;;;;;;;;;;;29.20;31.10;;;;;;5054355;28;19955;-50
2021/01/28 02:22:01;;;;;;;;;;;29.20;31.00;;;;;;5072474;28;19934;-48
2021/01/28 02:24:30;;;;;;;;;;;29.10;31.00;;;;;;5072457;28;20339;-48
2021/01/28 02:26:55;;;;;;;;;;;29.10;31.00;;;;;;5072251;28;19992;-49
2021/01/28 02:29:22;;;;;;;;;;;29.10;31.00;;;;;;5058965;28;20006;-47
2021/01/28 02:31:48;;;;;;;;;;;29.10;30.90;;;;;;5093916;28;19984;-48
2021/01/28 02:34:13;;;;;;;;;;;29.10;30.90;;;;;;5078171;28;19951;-51
2021/01/28 02:36:39;;;;;;;;;;;29.10;30.90;;;;;;5096160;28;19974;-49
2021/01/28 02:39:05;;;;;;;;;;;29.10;30.80;;;;;;5079394;28;19912;-48
2021/01/28 02:41:30;;;;;;;;;;;29.10;30.90;;;;;;5075903;28;19930;-48
2021/01/28 02:43:56;;;;;;;;;;;29.20;30.90;;;;;;5076091;28;20402;-49
2021/01/28 02:46:22;;;;;;;;;;;29.20;30.80;;;;;;5075841;28;19916;-48
2021/01/28 02:48:48;;;;;;;;;;;29.10;30.80;;;;;;5075964;28;20303;-51
2021/01/28 02:51:13;;;;;;;;;;;29.20;30.80;;;;;;5075501;28;19962;-50
2021/01/28 02:53:41;;;;;;;;;;;29.10;30.70;;;;;;5090763;28;19916;-49
2021/01/28 02:56:07;;;;;;;;;;;29.10;30.70;;;;;;5095710;28;20045;-47
2021/01/28 02:58:32;;;;;;;;;;;29.10;30.70;;;;;;5095920;28;19908;-48
2021/01/28 03:00:57;;;;;;;;;;;29.20;30.70;;;;;;5095584;28;19908;-49
2021/01/28 03:03:23;;;;;;;;;;;29.10;30.60;;;;;;5095796;28;19912;-47
2021/01/28 03:05:49;;;;;;;;;;;29.10;30.70;;;;;;5088684;28;20370;-48
2021/01/28 03:08:14;;;;;;;;;;;29.10;30.60;;;;;;5075240;28;20042;-48
2021/01/28 03:10:40;;;;;;;;;;;29.10;30.60;;;;;;5075318;28;19908;-47
2021/01/28 03:13:06;;;;;;;;;;;29.10;30.50;;;;;;5075489;28;19909;-47
2021/01/28 03:15:31;;;;;;;;;;;29.10;30.60;;;;;;5077950;28;20019;-48
2021/01/28 03:17:57;;;;;;;;;;;29.10;30.50;;;;;;5075109;28;19926;-49
2021/01/28 03:20:22;;;;;;;;;;;29.10;30.50;;;;;;5075329;28;19912;-49
2021/01/28 03:22:48;;;;;;;;;;;29.10;30.50;;;;;;5075383;28;19908;-48
2021/01/28 03:25:14;;;;;;;;;;;29.20;30.60;;;;;;5075214;28;19909;-48
2021/01/28 03:27:39;;;;;;;;;;;29.10;30.50;;;;;;5075262;28;19955;-47
2021/01/28 03:30:06;;;;;;;;;;;29.10;30.50;;;;;;5091759;28;19920;-48
2021/01/28 03:32:31;;;;;;;;;;;29.10;30.40;;;;;;5095307;28;19908;-48
2021/01/28 03:34:57;;;;;;;;;;;29.10;30.40;;;;;;5095122;28;19918;-53
2021/01/28 03:37:22;;;;;;;;;;;29.10;30.40;;;;;;5094939;28;19924;-47
2021/01/28 03:39:48;;;;;;;;;;;29.20;30.40;;;;;;5094916;28;19909;-47
2021/01/28 03:42:13;;;;;;;;;;;29.10;30.40;;;;;;5095128;28;19908;-48
2021/01/28 03:44:39;;;;;;;;;;;29.10;30.40;;;;;;5078447;28;20354;-47
2021/01/28 03:47:04;;;;;;;;;;;29.10;30.40;;;;;;5074629;28;19915;-48
2021/01/28 03:49:29;;;;;;;;;;;29.10;30.40;;;;;;5074781;28;19954;-48
2021/01/28 03:51:55;;;;;;;;;;;29.10;30.40;;;;;;5081025;28;20278;-51
2021/01/28 03:54:20;;;;;;;;;;;29.10;30.30;;;;;;5094867;28;19915;-48
2021/01/28 03:56:46;;;;;;;;;;;29.10;30.30;;;;;;5094013;28;19916;-48
2021/01/28 03:59:11;;;;;;;;;;;29.10;30.30;;;;;;5094736;28;19908;-48
2021/01/28 04:01:37;;;;;;;;;;;29.10;30.30;;;;;;5094441;28;19908;-47
2021/01/28 04:04:02;;;;;;;;;;;29.10;30.30;;;;;;5094758;28;19916;-47
2021/01/28 04:06:28;;;;;;;;;;;29.10;30.20;;;;;;5094806;28;19951;-48
2021/01/28 04:08:53;;;;;;;;;;;29.10;30.20;;;;;;5094516;28;19919;-49
2021/01/28 04:11:19;;;;;;;;;;;29.10;30.20;;;;;;5092069;28;20046;-50
2021/01/28 04:13:44;;;;;;;;;;;29.10;30.20;;;;;;5093588;28;19912;-48
2021/01/28 04:16:09;;;;;;;;;;;29.10;30.20;;;;;;5094525;28;20350;-47
2021/01/28 04:18:35;;;;;;;;;;;29.10;30.20;;;;;;5094256;28;19935;-48
2021/01/28 04:21:00;;;;;;;;;;;29.10;30.20;;;;;;5094244;28;20340;-47
2021/01/28 04:23:26;;;;;;;;;;;29.10;30.10;;;;;;5094385;28;19908;-47
2021/01/28 04:25:51;;;;;;;;;;;29.10;30.10;;;;;;5093629;28;19947;-50
2021/01/28 04:28:17;;;;;;;;;;;29.10;30.10;;;;;;5093219;28;19908;-47
2021/01/28 04:30:42;;;;;;;;;;;29.10;30.10;;;;;;5088399;28;19982;-47
2021/01/28 04:33:09;;;;;;;;;;;29.10;30.10;;;;;;5073664;28;20370;-48
2021/01/28 04:35:34;;;;;;;;;;;29.10;30.00;;;;;;5073820;28;19999;-48
2021/01/28 04:38:00;;;;;;;;;;;29.10;30.00;;;;;;5073636;28;20386;-48
2021/01/28 04:40:31;;;;;;;;;;;29.10;30.00;;;;;;5073432;28;19931;-47
2021/01/28 04:42:56;;;;;;;;;;;29.10;30.00;;;;;;5073785;28;19995;-48
2021/01/28 04:45:22;;;;;;;;;;;29.10;30.00;;;;;;5056495;28;20038;-51
2021/01/28 04:47:51;;;;;;;;;;;29.10;30.00;;;;;;5055871;28;19908;-48
2021/01/28 04:50:20;;;;;;;;;;;29.10;30.00;;;;;;5059041;28;19965;-48
2021/01/28 04:52:46;;;;;;;;;;;29.10;30.00;;;;;;5093719;28;19915;-47
2021/01/28 04:55:11;;;;;;;;;;;29.10;30.00;;;;;;5093554;28;19908;-47
2021/01/28 04:57:37;;;;;;;;;;;29.10;30.00;;;;;;5075449;28;19916;-48
2021/01/28 05:00:03;;;;;;;;;;;29.10;30.00;;;;;;5093733;28;20442;-48
2021/01/28 05:02:28;;;;;;;;;;;29.10;29.90;;;;;;5093569;28;19908;-48
2021/01/28 05:04:58;;;;;;;;;;;29.10;29.90;;;;;;5072941;28;20022;-49
2021/01/28 05:07:30;;;;;;;;;;;29.10;29.90;;;;;;5055274;28;19913;-47
2021/01/28 05:10:02;;;;;;;;;;;29.10;29.90;;;;;;5073163;28;19955;-48
2021/01/28 05:12:28;;;;;;;;;;;29.10;29.90;;;;;;5072939;28;19912;-47
2021/01/28 05:14:53;;;;;;;;;;;29.10;29.90;;;;;;5072780;28;19908;-48
2021/01/28 05:17:19;;;;;;;;;;;29.10;30.00;;;;;;5054857;28;19927;-49
2021/01/28 05:19:45;;;;;;;;;;;29.00;29.90;;;;;;5075764;28;19916;-47
2021/01/28 05:22:14;;;;;;;;;;;29.10;29.90;;;;;;5093399;28;19995;-47
2021/01/28 05:24:46;;;;;;;;;;;29.00;29.90;;;;;;5093026;28;19930;-47
2021/01/28 05:27:16;;;;;;;;;;;29.10;29.90;;;;;;5092947;28;20354;-51
2021/01/28 05:29:42;;;;;;;;;;;29.10;29.90;;;;;;5076155;28;19920;-49
2021/01/28 05:32:13;;;;;;;;;;;29.10;29.90;;;;;;5072982;28;20312;-48
2021/01/28 05:34:38;;;;;;;;;;;29.10;29.90;;;;;;5072841;28;19908;-50
2021/01/28 05:37:09;;;;;;;;;;;29.10;29.90;;;;;;5072799;28;20281;-47
2021/01/28 05:39:35;;;;;;;;;;;29.10;29.80;;;;;;5054523;28;20375;-49
2021/01/28 05:42:20;;;;;;;;;;;29.10;29.80;;;;;;5056123;28;20016;-54
2021/01/28 05:44:45;;;;;;;;;;;29.10;29.80;;;;;;5072910;28;19912;-48
2021/01/28 05:47:34;;;;;;;;;;;29.10;29.80;;;;;;5072848;28;19953;-47
2021/01/28 05:50:18;;;;;;;;;;;29.10;29.80;;;;;;5072901;28;20320;-47
2021/01/28 05:52:44;;;;;;;;;;;29.10;29.80;;;;;;5077342;28;20374;-48
2021/01/28 05:55:16;;;;;;;;;;;29.00;29.80;;;;;;5072473;28;19944;-49
2021/01/28 05:57:48;;;;;;;;;;;29.10;29.80;;;;;;5054695;28;20270;-47
2021/01/28 06:00:19;;;;;;;;;;;29.00;29.80;;;;;;5073598;28;19920;-49
2021/01/28 06:02:51;;;;;;;;;;;29.10;29.80;;;;;;5060833;28;19913;-48
2021/01/28 06:05:36;;;;;;;;;;;29.00;29.70;;;;;;5072531;28;19915;-49
2021/01/28 06:08:05;;;;;;;;;;;29.10;29.80;;;;;;5075331;28;19916;-47
2021/01/28 06:10:49;;;;;;;;;;;29.10;29.80;;;;;;5076306;28;20393;-49
2021/01/28 06:13:21;;;;;;;;;;;29.10;29.70;;;;;;5076399;28;20354;-48
2021/01/28 06:15:49;;;;;;;;;;;29.10;29.70;;;;;;5076549;28;19916;-48
2021/01/28 06:18:21;;;;;;;;;;;29.10;29.70;;;;;;5095843;28;19927;-49
2021/01/28 06:21:25;;;;;;;;;;;29.10;29.70;;;;;;5064172;28;19944;-48
2021/01/28 06:24:00;;;;;;;;;;;29.10;29.70;;;;;;5014145;28;19954;-49
2021/01/28 06:26:27;;;;;;;;;;;29.10;29.70;;;;;;4997912;28;19949;-47
2021/01/28 06:28:52;;;;;;;;;;;29.10;29.70;;;;;;5029901;28;19909;-49
2021/01/28 06:31:30;;;;;;;;;;;29.00;29.60;;;;;;5083835;28;20361;-48
2021/01/28 06:34:01;;;;;;;;;;;29.10;29.70;;;;;;5085017;28;19938;-47
2021/01/28 06:36:26;;;;;;;;;;;29.10;30.10;;;;;;5075754;28;20431;-49
2021/01/28 06:38:58;;;;;;;;;;;29.10;29.70;;;;;;5075909;28;19912;-54
2021/01/28 06:41:25;;;;;;;;;;;29.10;29.70;;;;;;5076104;28;19913;-49
2021/01/28 06:44:12;;;;;;;;;;;29.00;29.60;;;;;;5058301;28;20342;-48
2021/01/28 06:46:43;;;;;;;;;;;29.00;29.60;;;;;;5060202;28;20409;-47
2021/01/28 06:49:27;;;;;;;;;;;29.10;29.70;;;;;;5096268;28;20348;-48
2021/01/28 06:52:02;;;;;;;;;;;29.00;29.60;;;;;;5096016;28;20020;-48
2021/01/28 06:54:30;;;;;;;;;;;29.10;29.70;;;;;;5095828;28;20005;-47
2021/01/28 06:56:58;;;;;;;;;;;29.00;29.60;;;;;;5095739;28;20498;-48
2021/01/28 06:59:25;;;;;;;;;;;29.00;29.60;;;;;;5094155;28;19923;-49
2021/01/28 07:02:00;;;;;;;;;;;29.00;29.60;;;;;;5077949;28;19975;-50
2021/01/28 07:04:34;;;;;;;;;;;29.00;29.60;;;;;;5095786;28;19916;-49
2021/01/28 07:07:26;;;;;;;;;;;29.10;29.70;;;;;;5070516;28;19966;-48
2021/01/28 07:09:54;;;;;;;;;;;29.10;29.60;;;;;;5074763;28;20007;-49
2021/01/28 07:12:21;;;;;;;;;;;29.00;29.60;;;;;;5075562;28;19912;-48
2021/01/28 07:14:47;;;;;;;;;;;29.00;29.60;;;;;;5057741;28;20399;-47
2021/01/28 07:17:14;;;;;;;;;;;29.10;29.60;;;;;;5074889;28;19971;-48
2021/01/28 07:19:41;;;;;;;;;;;29.10;29.60;;;;;;5074231;28;19915;-50
2021/01/28 07:22:26;;;;;;;;;;;29.00;29.50;;;;;;5057583;28;20328;-50
2021/01/28 07:24:51;;;;;;;;;;;29.00;29.50;;;;;;5078161;28;20037;-49
2021/01/28 07:27:18;;;;;;;;;;;29.10;29.60;;;;;;5095053;28;20509;-47
2021/01/28 07:29:43;;;;;;;;;;;29.00;29.60;;;;;;5094913;28;20390;-48
2021/01/28 07:32:09;;;;;;;;;;;29.00;29.50;;;;;;5095435;28;19908;-48
2021/01/28 07:34:35;;;;;;;;;;;29.00;29.50;;;;;;5062207;28;19912;-48
2021/01/28 07:37:20;;;;;;;;;;;29.10;29.50;;;;;;5074688;28;19917;-48
2021/01/28 07:39:46;;;;;;;;;;;29.10;29.50;;;;;;5063973;28;20362;-47
2021/01/28 07:42:25;;;;;;;;;;;29.10;29.50;;;;;;5074775;28;19915;-48
2021/01/28 07:44:53;;;;;;;;;;;29.10;29.50;;;;;;5087974;28;19918;-49
2021/01/28 07:47:31;;;;;;;;;;;29.10;29.50;;;;;;5057159;28;19912;-48
2021/01/28 07:50:19;;;;;;;;;;;29.10;29.50;;;;;;5085717;28;20265;-50
2021/01/28 07:52:44;;;;;;;;;;;29.10;29.50;;;;;;5094291;28;19912;-51
2021/01/28 07:55:30;;;;;;;;;;;29.10;29.50;;;;;;5076840;28;20331;-48
2021/01/28 07:57:55;;;;;;;;;;;29.10;29.50;;;;;;5094533;28;19922;-49
2021/01/28 08:00:23;;;;;;;;;;;29.00;29.70;;;;;;5076575;28;19908;-49
2021/01/28 08:03:02;;;;;;;;;;;29.10;29.50;;;;;;5094802;28;19991;-47
2021/01/28 08:05:28;;;;;;;;;;;29.10;29.50;;;;;;5094743;28;19965;-47
2021/01/28 08:08:23;;;;;;;;;;;29.00;29.50;;;;;;5076671;28;19912;-51
2021/01/28 08:10:48;;;;;;;;;;;29.00;29.50;;;;;;5072876;28;20375;-48
2021/01/28 08:13:19;;;;;;;;;;;29.00;29.50;;;;;;5094315;28;19956;-49
2021/01/28 08:15:45;;;;;;;;;;;29.00;29.50;;;;;;5094574;28;19913;-49
2021/01/28 08:18:21;;;;;;;;;;;29.00;29.50;;;;;;5094268;28;19916;-55
2021/01/28 08:20:47;;;;;;;;;;;29.10;29.60;;;;;;5085077;28;19916;-50
2021/01/28 08:23:25;;;;;;;;;;;29.00;29.60;;;;;;5074017;28;19913;-46
2021/01/28 08:25:56;;;;;;;;;;;29.10;29.80;;;;;;5074286;28;19944;-57
2021/01/28 08:28:22;;;;;;;;;;;29.10;29.80;;;;;;5073752;28;19947;-56
2021/01/28 08:30:47;;;;;;;;;;;29.10;29.80;;;;;;5073385;28;19963;-53
2021/01/28 08:33:17;;;;;;;;;;;29.00;29.80;;;;;;5094256;28;20374;-55
2021/01/28 08:35:43;;;;;;;;;;;28.60;28.40;;;;;;5075885;28;19908;-60
2021/01/28 08:38:20;;;;;;;;;;;28.60;29.20;;;;;;5075732;28;20064;-61
2021/01/28 08:40:54;;;;;;;;;;;28.70;29.50;;;;;;5093935;28;19908;-60
2021/01/28 08:43:20;;;;;;;;;;;28.90;29.50;;;;;;5093909;28;19912;-59
2021/01/28 08:45:45;;;;;;;;;;;29.00;29.50;;;;;;5091734;28;19919;-60
2021/01/28 08:48:13;;;;;;;;;;;29.00;29.40;;;;;;5073700;28;19947;-58
2021/01/28 08:50:39;;;;;;;;;;;29.10;29.50;;;;;;5074004;28;19912;-59
2021/01/28 08:53:06;;;;;;;;;;;29.10;29.40;;;;;;5073396;28;20358;-55
2021/01/28 08:55:38;;;;;;;;;;;29.10;29.50;;;;;;5073309;28;19908;-60
2021/01/28 08:58:05;;;;;;;;;;;29.10;29.50;;;;;;5073127;28;20238;-56
2021/01/28 09:00:31;;;;;;;;;;;29.10;29.50;;;;;;5074860;28;19908;-53
2021/01/28 09:02:56;;;;;;;;;;;29.20;29.60;;;;;;5093717;28;19919;-60
2021/01/28 09:05:24;;;;;;;;;;;29.20;29.60;;;;;;5093505;28;19907;-62
2021/01/28 09:07:56;;;;;;;;;;;29.20;29.60;;;;;;5093715;28;19954;-60
2021/01/28 09:10:34;;;;;;;;;;;29.20;29.60;;;;;;5093399;28;20366;-60
2021/01/28 09:13:11;;;;;;;;;;;29.20;29.60;;;;;;5093660;28;19923;-60
2021/01/28 09:15:37;;;;;;;;;;;29.20;29.60;;;;;;5089954;28;19909;-61
2021/01/28 09:18:03;;;;;;;;;;;29.20;29.70;;;;;;5093365;28;19920;-61
2021/01/28 09:20:30;;;;;;;;;;;29.30;29.80;;;;;;5093024;28;19908;-60
2021/01/28 09:23:15;;;;;;;;;;;29.20;29.70;;;;;;5093518;28;19991;-60
2021/01/28 09:25:40;;;;;;;;;;;29.20;29.70;;;;;;5093313;28;19908;-50
2021/01/28 09:28:08;;;;;;;;;;;29.30;29.70;;;;;;5093021;28;20003;-61
2021/01/28 09:30:35;;;;;;;;;;;29.30;29.70;;;;;;5072985;28;19931;-61
2021/01/28 09:33:09;;;;;;;;;;;29.30;29.70;;;;;;5093209;28;19918;-62
2021/01/28 09:35:35;;;;;;;;;;;29.30;29.70;;;;;;5074747;28;19912;-65
2021/01/28 09:38:02;;;;;;;;;;;29.30;29.70;;;;;;5092773;28;19920;-57
2021/01/28 09:40:29;;;;;;;;;;;29.30;29.70;;;;;;5075943;28;19955;-59
2021/01/28 09:43:13;;;;;;;;;;;29.30;29.70;;;;;;5092109;28;20383;-55
2021/01/28 09:45:39;;;;;;;;;;;29.30;29.70;;;;;;5092802;28;19908;-60
2021/01/28 09:48:04;;;;;;;;;;;29.30;29.70;;;;;;5085147;28;19922;-57
2021/01/28 09:50:31;;;;;;;;;;;29.30;29.80;;;;;;5080726;28;19920;-56
2021/01/28 09:52:56;;;;;;;;;;;29.30;29.70;;;;;;5072619;28;19909;-63
2021/01/28 09:55:22;;;;;;;;;;;29.30;29.70;;;;;;5072497;28;19909;-63
2021/01/28 09:57:48;;;;;;;;;;;29.30;29.70;;;;;;5077474;28;19928;-59
2021/01/28 10:00:15;;;;;;;;;;;29.20;29.80;;;;;;5082658;28;20353;-64
2021/01/28 10:02:46;;;;;;;;;;;29.20;29.90;;;;;;5086707;28;21946;-53
2021/01/28 10:05:12;;;;;;;;;;;29.10;30.00;;;;;;5087396;28;19959;-55
2021/01/28 10:07:38;;;;;;;;;;;29.10;30.00;;;;;;5092474;28;20415;-55
2021/01/28 10:10:04;;;;;;;;;;;29.10;29.90;;;;;;5092545;28;19912;-55
2021/01/28 10:12:30;;;;;;;;;;;29.20;30.00;;;;;;5091088;28;19909;-53
2021/01/28 10:14:55;;;;;;;;;;;29.30;30.00;;;;;;5069421;28;19938;-55
2021/01/28 10:17:21;;;;;;;;;;;29.30;30.00;;;;;;5089050;28;20013;-54
2021/01/28 10:19:46;;;;;;;;;;;29.30;29.90;;;;;;5084484;28;19919;-55
2021/01/28 10:22:12;;;;;;;;;;;29.30;29.90;;;;;;5083072;28;19955;-55
2021/01/28 10:24:38;;;;;;;;;;;29.30;30.00;;;;;;5085754;28;19920;-52
2021/01/28 10:27:03;;;;;;;;;;;29.30;30.00;;;;;;5073599;28;19921;-50
2021/01/28 10:29:29;;;;;;;;;;;29.30;30.50;;;;;;5086130;28;19921;-62
2021/01/28 10:31:54;;;;;;;;;;;29.30;30.00;;;;;;5085963;28;19957;-50
2021/01/28 10:34:20;;;;;;;;;;;29.30;30.00;;;;;;5081115;28;19920;-64
2021/01/28 10:36:45;;;;;;;;;;;29.20;30.10;;;;;;5072084;28;19920;-57
2021/01/28 10:39:11;;;;;;;;;;;29.20;30.00;;;;;;5074966;28;19913;-57
2021/01/28 10:41:36;;;;;;;;;;;29.20;30.10;;;;;;5078263;28;20400;-56
2021/01/28 10:44:02;;;;;;;;;;;29.20;30.10;;;;;;5072599;28;19955;-54
2021/01/28 10:46:28;;;;;;;;;;;29.30;30.10;;;;;;5092627;28;19935;-50
2021/01/28 10:48:53;;;;;;;;;;;29.30;30.00;;;;;;5078958;28;20340;-49
2021/01/28 10:51:19;;;;;;;;;;;29.30;30.10;;;;;;5072725;28;20012;-52
2021/01/28 10:53:44;;;;;;;;;;;29.30;30.10;;;;;;5084447;28;19912;-63
2021/01/28 10:56:10;;;;;;;;;;;29.20;30.20;;;;;;5096155;28;19953;-63
2021/01/28 10:58:36;;;;;;;;;;;29.20;30.30;;;;;;5081407;28;20016;-55
2021/01/28 11:01:01;;;;;;;;;;;29.20;30.40;;;;;;5088453;28;19999;-58
2021/01/28 11:03:27;;;;;;;;;;;29.20;30.40;;;;;;5086238;28;19912;-63
2021/01/28 11:05:52;;;;;;;;;;;29.20;30.40;;;;;;5076354;28;19909;-52
2021/01/28 11:08:18;;;;;;;;;;;29.20;30.50;;;;;;5083724;28;19912;-66
2021/01/28 11:10:43;;;;;;;;;;;29.10;30.50;;;;;;5095895;28;20376;-59
2021/01/28 11:13:09;;;;;;;;;;;29.10;30.40;;;;;;5093394;28;20406;-53
2021/01/28 11:15:37;;;;;;;;;;;29.10;30.40;;;;;;5095312;28;20388;-59
2021/01/28 11:18:03;;;;;;;;;;;29.10;30.40;;;;;;5087990;28;19927;-59
2021/01/28 11:20:29;;;;;;;;;;;29.20;30.50;;;;;;5081103;28;19912;-59
2021/01/28 11:22:54;;;;;;;;;;;29.20;30.40;;;;;;5075587;28;19917;-60
2021/01/28 11:25:21;;;;;;;;;;;29.20;30.40;;;;;;5075313;28;19999;-58
2021/01/28 11:27:48;;;;;;;;;;;29.30;30.50;;;;;;5078498;28;20364;-57
2021/01/28 11:30:14;;;;;;;;;;;29.20;30.40;;;;;;5079162;28;19920;-57
2021/01/28 11:32:39;;;;;;;;;;;29.30;30.40;;;;;;5076343;28;19920;-64
2021/01/28 11:35:05;;;;;;;;;;;29.30;30.40;;;;;;5079333;28;20602;-52
2021/01/28 11:37:31;;;;;;;;;;;29.30;30.30;;;;;;5074845;28;20015;-59
2021/01/28 11:39:56;;;;;;;;;;;29.30;30.40;;;;;;5079002;28;19916;-66
2021/01/28 11:42:21;;;;;;;;;;;29.20;30.40;;;;;;5077093;28;19917;-56
2021/01/28 11:44:47;;;;;;;;;;;29.20;30.60;;;;;;5076995;28;20358;-68
2021/01/28 11:47:12;;;;;;;;;;;29.20;30.70;;;;;;5079359;28;19912;-70
2021/01/28 11:49:38;;;;;;;;;;;29.10;30.50;;;;;;5089582;28;19919;-62
2021/01/28 11:52:03;;;;;;;;;;;29.00;30.80;;;;;;5094670;28;19934;-62
2021/01/28 11:54:29;;;;;;;;;;;29.00;30.70;;;;;;5076645;28;19920;-61
2021/01/28 11:56:54;;;;;;;;;;;29.10;30.60;;;;;;5074760;28;19928;-61
2021/01/28 11:59:20;;;;;;;;;;;29.10;30.40;;;;;;5087895;28;20366;-61
2021/01/28 12:01:45;;;;;;;;;;;29.10;30.30;;;;;;5082095;28;20018;-61
2021/01/28 12:04:11;;;;;;;;;;;29.20;30.20;;;;;;5088929;28;19913;-61
2021/01/28 12:06:36;;;;;;;;;;;29.20;30.00;;;;;;5074566;28;19909;-61
2021/01/28 12:09:04;;;;;;;;;;;29.20;30.00;;;;;;5059571;28;20327;-61
2021/01/28 12:11:29;;;;;;;;;;;29.20;30.00;;;;;;5094507;28;19915;-61
2021/01/28 12:13:55;;;;;;;;;;;29.30;30.00;;;;;;5084673;28;19989;-61
2021/01/28 12:16:20;;;;;;;;;;;29.20;30.00;;;;;;5074166;28;19970;-61
2021/01/28 12:18:46;;;;;;;;;;;29.20;30.00;;;;;;5084254;28;20385;-61
2021/01/28 12:21:11;;;;;;;;;;;29.20;30.00;;;;;;5073966;28;19908;-61
2021/01/28 12:23:36;;;;;;;;;;;29.20;29.90;;;;;;5084021;28;19913;-61
2021/01/28 12:26:02;;;;;;;;;;;29.20;29.90;;;;;;5074136;28;19908;-61
2021/01/28 12:28:27;;;;;;;;;;;29.20;29.90;;;;;;5075886;28;19969;-61
2021/01/28 12:30:53;;;;;;;;;;;29.20;29.90;;;;;;5081764;28;19924;-61
2021/01/28 12:33:18;;;;;;;;;;;29.20;29.90;;;;;;5082146;28;20300;-61
2021/01/28 12:35:44;;;;;;;;;;;29.20;29.90;;;;;;5086671;28;20433;-61
2021/01/28 12:38:09;;;;;;;;;;;29.20;29.80;;;;;;5073729;28;20053;-61
2021/01/28 12:40:35;;;;;;;;;;;29.20;29.80;;;;;;5073361;28;19908;-61
2021/01/28 12:43:00;;;;;;;;;;;29.20;29.80;;;;;;5079230;28;20003;-61
2021/01/28 12:45:26;;;;;;;;;;;29.20;29.90;;;;;;5093934;28;20273;-61
2021/01/28 12:47:51;;;;;;;;;;;29.20;29.80;;;;;;5083184;28;20297;-61
2021/01/28 12:50:17;;;;;;;;;;;29.20;29.80;;;;;;5086036;28;19913;-61
2021/01/28 12:52:43;;;;;;;;;;;29.20;29.80;;;;;;5080131;28;19912;-61
2021/01/28 12:55:09;;;;;;;;;;;29.20;29.80;;;;;;5082117;28;19920;-61
2021/01/28 12:57:36;;;;;;;;;;;29.20;29.80;;;;;;5076141;28;19930;-61
2021/01/28 13:00:03;;;;;;;;;;;29.20;29.80;;;;;;5083213;28;19912;-61
2021/01/28 13:02:28;;;;;;;;;;;29.20;29.80;;;;;;5074149;28;19966;-61
2021/01/28 13:04:54;;;;;;;;;;;29.20;29.80;;;;;;5085566;28;20352;-61
2021/01/28 13:07:19;;;;;;;;;;;29.20;29.80;;;;;;5072822;28;19957;-61
2021/01/28 13:09:44;;;;;;;;;;;29.20;29.80;;;;;;5080606;28;19912;-61
2021/01/28 13:12:10;;;;;;;;;;;29.20;29.80;;;;;;5093121;28;20350;-64
2021/01/28 13:14:35;;;;;;;;;;;29.20;29.80;;;;;;5085999;28;19912;-61
2021/01/28 13:17:01;;;;;;;;;;;29.20;29.80;;;;;;5077336;28;19924;-61
2021/01/28 13:19:26;;;;;;;;;;;29.10;29.80;;;;;;5075440;28;19938;-61
2021/01/28 13:21:52;;;;;;;;;;;29.10;29.80;;;;;;5072868;28;19909;-61
2021/01/28 13:24:17;;;;;;;;;;;29.10;29.80;;;;;;5076528;28;20057;-61
2021/01/28 13:26:43;;;;;;;;;;;29.10;29.80;;;;;;5092802;28;19995;-61
2021/01/28 13:29:08;;;;;;;;;;;29.10;29.80;;;;;;5086187;28;19921;-61
2021/01/28 13:31:34;;;;;;;;;;;29.10;29.80;;;;;;5072672;28;19920;-61
2021/01/28 13:33:59;;;;;;;;;;;29.20;29.80;;;;;;5082420;28;20403;-61
2021/01/28 13:36:25;;;;;;;;;;;29.10;29.80;;;;;;5091077;28;19912;-61
2021/01/28 13:38:50;;;;;;;;;;;29.10;29.80;;;;;;5092292;28;19908;-61
2021/01/28 13:41:16;;;;;;;;;;;29.10;29.80;;;;;;5072628;28;19999;-61
2021/01/28 13:43:41;;;;;;;;;;;29.10;29.80;;;;;;5083894;28;20002;-62
2021/01/28 13:46:06;;;;;;;;;;;29.10;29.80;;;;;;5086866;28;20397;-61
2021/01/28 13:48:32;;;;;;;;;;;29.10;29.80;;;;;;5073803;28;19944;-61
2021/01/28 13:50:57;;;;;;;;;;;29.10;29.80;;;;;;5090451;28;19965;-61
2021/01/28 13:53:23;;;;;;;;;;;29.10;29.90;;;;;;5083306;28;20376;-61
2021/01/28 13:55:49;;;;;;;;;;;29.10;29.80;;;;;;5072636;28;19909;-61
2021/01/28 13:58:15;;;;;;;;;;;29.10;29.90;;;;;;5079756;28;20443;-61
2021/01/28 14:00:41;;;;;;;;;;;29.10;29.90;;;;;;5083783;28;19912;-61
2021/01/28 14:03:06;;;;;;;;;;;29.10;29.90;;;;;;5080348;28;20031;-61
2021/01/28 14:05:31;;;;;;;;;;;29.10;29.90;;;;;;5078281;28;19923;-61
2021/01/28 14:07:57;;;;;;;;;;;29.10;29.90;;;;;;5090145;28;19912;-62
2021/01/28 14:10:27;;;;;;;;;;;29.10;29.80;;;;;;5079454;28;19912;-62
2021/01/28 14:12:53;;;;;;;;;;;29.10;29.90;;;;;;5091199;28;19951;-61
2021/01/28 14:15:19;;;;;;;;;;;29.10;29.90;;;;;;5076803;28;19958;-61
2021/01/28 14:17:45;;;;;;;;;;;29.10;30.00;;;;;;5090277;28;20271;-68